Time;durP1;ratioP1;P1;durP2;ratioP2;P2;SDS_P1;SDS_P2;PMS_P1;PMS_P2;Temp;Humidity;BMP_temperature;BMP_pressure;BME280_temperature;BME280_humidity;BME280_pressure;Samples;Min_cycle;Max_cycle;Signal;HPM_P1;HPM_P2
2023/08/16 00:01:23;;;;;;;1.45;0.77;;;23.10;57.60;;;;;;6099269;23;20011;-62
2023/08/16 00:03:49;;;;;;;0.95;0.70;;;23.00;57.70;;;;;;6125895;23;20014;-62
2023/08/16 00:06:15;;;;;;;;;;;23.00;57.90;;;;;;6126066;23;20387;-62
2023/08/16 00:08:41;;;;;;;1.63;0.90;;;22.90;57.50;;;;;;6148979;23;19909;-62
2023/08/16 00:11:09;;;;;;;1.27;0.73;;;22.90;57.60;;;;;;6099364;23;20045;-62
2023/08/16 00:13:37;;;;;;;1.15;0.80;;;22.90;57.20;;;;;;6075874;23;20456;-62
2023/08/16 00:16:04;;;;;;;0.38;0.38;;;22.90;57.70;;;;;;6124982;23;20048;-62
2023/08/16 00:18:30;;;;;;;0.50;0.45;;;22.90;57.30;;;;;;6125638;23;20061;-62
2023/08/16 00:20:58;;;;;;;0.47;0.30;;;22.90;57.90;;;;;;6079745;23;20042;-62
2023/08/16 00:23:24;;;;;;;2.28;1.25;;;22.90;57.80;;;;;;6096220;23;20013;-62
2023/08/16 00:25:50;;;;;;;1.75;0.95;;;22.80;57.90;;;;;;6095966;23;20090;-62
2023/08/16 00:28:16;;;;;;;;;;;22.80;58.30;;;;;;6071344;23;20006;-62
2023/08/16 00:30:42;;;;;;;1.40;0.68;;;22.80;58.00;;;;;;6095547;23;19909;-62
2023/08/16 00:33:08;;;;;;;0.40;0.22;;;22.80;58.60;;;;;;6046820;23;20468;-62
2023/08/16 00:35:34;;;;;;;;;;;22.80;58.80;;;;;;6070668;23;20022;-62
2023/08/16 00:38:00;;;;;;;0.95;0.82;;;22.80;58.80;;;;;;6096107;23;20283;-62
2023/08/16 00:40:26;;;;;;;2.35;1.17;;;22.70;58.70;;;;;;6070256;23;20006;-62
2023/08/16 00:42:52;;;;;;;;;;;22.60;58.80;;;;;;6097295;23;20010;-62
2023/08/16 00:45:18;;;;;;;0.55;0.55;;;22.70;58.60;;;;;;6095558;23;19936;-62
2023/08/16 00:47:44;;;;;;;;;;;22.60;58.70;;;;;;6097279;23;20022;-62
2023/08/16 00:50:10;;;;;;;0.22;0.22;;;22.60;58.70;;;;;;6070372;23;20282;-62
2023/08/16 00:52:37;;;;;;;1.40;0.70;;;22.50;58.80;;;;;;6096576;23;20018;-62
2023/08/16 00:55:04;;;;;;;0.77;0.75;;;22.50;59.70;;;;;;6070312;23;20444;-62
2023/08/16 00:57:31;;;;;;;1.23;0.80;;;22.50;59.50;;;;;;6070366;23;20011;-62
2023/08/16 00:59:57;;;;;;;2.38;1.17;;;22.50;59.70;;;;;;6095891;23;20022;-62
2023/08/16 01:02:23;;;;;;;1.52;0.68;;;22.40;59.70;;;;;;6070206;23;20011;-62
2023/08/16 01:04:49;;;;;;;2.35;1.65;;;22.40;59.60;;;;;;6096024;23;20020;-61
2023/08/16 01:07:15;;;;;;;;;;;22.40;59.70;;;;;;6070710;23;20425;-62
2023/08/16 01:09:42;;;;;;;1.48;0.52;;;22.40;59.40;;;;;;6095904;23;20018;-62
2023/08/16 01:12:47;;;;;;;1.58;0.85;;;22.30;59.80;;;;;;6095592;23;20014;-62
2023/08/16 01:15:36;;;;;;;2.40;1.08;;;22.30;59.70;;;;;;6070035;23;20018;-62
2023/08/16 01:18:03;;;;;;;0.70;0.63;;;22.30;59.60;;;;;;6069899;23;20045;-61
2023/08/16 01:20:31;;;;;;;1.00;0.88;;;22.20;59.20;;;;;;6108869;23;20046;-61
2023/08/16 01:23:36;;;;;;;1.05;0.90;;;22.10;59.70;;;;;;6125035;23;20010;-61
2023/08/16 01:26:39;;;;;;;2.15;1.00;;;22.10;60.10;;;;;;6124280;23;20014;-61
2023/08/16 01:29:07;;;;;;;0.77;0.70;;;22.10;60.30;;;;;;6124907;23;20431;-61
2023/08/16 01:31:34;;;;;;;0.30;0.30;;;22.00;60.20;;;;;;6098525;23;20014;-61
2023/08/16 01:34:00;;;;;;;1.17;0.70;;;22.10;60.20;;;;;;6099048;23;20101;-61
2023/08/16 01:36:27;;;;;;;1.35;0.73;;;22.10;59.70;;;;;;6098535;23;20022;-61
2023/08/16 01:38:55;;;;;;;0.85;0.60;;;22.10;60.30;;;;;;6099057;23;20010;-61
2023/08/16 01:41:28;;;;;;;0.43;0.43;;;22.20;60.10;;;;;;6098512;23;20020;-61
2023/08/16 01:43:56;;;;;;;1.05;0.95;;;22.10;60.10;;;;;;6099021;23;20333;-61
2023/08/16 01:46:25;;;;;;;2.00;1.63;;;22.10;60.10;;;;;;6098359;23;20604;-61
2023/08/16 01:48:53;;;;;;;0.35;0.35;;;22.10;60.60;;;;;;6074738;23;20037;-62
2023/08/16 01:51:19;;;;;;;0.95;0.65;;;22.10;60.50;;;;;;6098464;23;20339;-61
2023/08/16 01:53:52;;;;;;;1.70;0.60;;;22.10;60.70;;;;;;6098882;23;20033;-61
2023/08/16 01:56:19;;;;;;;1.25;0.68;;;22.10;61.00;;;;;;6124007;23;20093;-61
2023/08/16 01:58:45;;;;;;;0.88;0.57;;;22.10;60.20;;;;;;6124857;23;20073;-61
2023/08/16 02:01:12;;;;;;;0.93;0.75;;;22.10;60.90;;;;;;6124276;23;20021;-61
2023/08/16 02:03:38;;;;;;;1.23;0.90;;;22.00;61.00;;;;;;6098669;23;20527;-62
2023/08/16 02:06:04;;;;;;;;;;;22.00;61.10;;;;;;6124749;23;20014;-61
2023/08/16 02:08:30;;;;;;;0.98;0.50;;;22.00;61.20;;;;;;6147796;23;20286;-62
2023/08/16 02:10:56;;;;;;;;;;;21.90;61.40;;;;;;6124824;23;20024;-61
2023/08/16 02:13:22;;;;;;;1.73;0.93;;;21.90;61.40;;;;;;6124700;23;19913;-61
2023/08/16 02:15:48;;;;;;;;;;;21.90;61.50;;;;;;6098938;23;20018;-61
2023/08/16 02:18:14;;;;;;;1.08;0.75;;;21.80;61.40;;;;;;6147384;23;20000;-61
2023/08/16 02:20:41;;;;;;;;;;;21.80;61.40;;;;;;6124629;23;20014;-61
2023/08/16 02:23:08;;;;;;;2.03;1.02;;;21.80;61.30;;;;;;6147722;23;19952;-61
2023/08/16 02:25:34;;;;;;;2.92;0.95;;;21.80;61.50;;;;;;6124014;23;20105;-61
2023/08/16 02:28:00;;;;;;;0.60;0.45;;;21.70;61.20;;;;;;6098459;23;20073;-61
2023/08/16 02:30:26;;;;;;;;;;;21.70;62.00;;;;;;6098576;23;20013;-61
2023/08/16 02:32:57;;;;;;;0.93;0.65;;;21.70;61.60;;;;;;6125105;23;19913;-61
2023/08/16 02:35:23;;;;;;;1.83;1.13;;;21.60;62.10;;;;;;6098765;23;20061;-61
2023/08/16 02:37:49;;;;;;;;;;;21.70;62.20;;;;;;6099451;23;20025;-61
2023/08/16 02:40:15;;;;;;;0.98;0.65;;;21.60;62.10;;;;;;6098231;23;19912;-61
2023/08/16 02:42:41;;;;;;;2.22;1.38;;;21.50;62.40;;;;;;6125019;23;20085;-61
2023/08/16 02:45:07;;;;;;;;;;;21.50;62.50;;;;;;6098722;23;20072;-61
2023/08/16 02:47:33;;;;;;;1.63;0.88;;;21.50;62.30;;;;;;6147946;23;19964;-61
2023/08/16 02:49:59;;;;;;;;;;;21.40;62.50;;;;;;6099190;23;20447;-61
2023/08/16 02:52:25;;;;;;;0.63;0.43;;;21.40;62.30;;;;;;6124248;23;19948;-62
2023/08/16 02:54:51;;;;;;;;;;;21.40;62.50;;;;;;6125039;23;20037;-61
2023/08/16 02:57:18;;;;;;;0.52;0.45;;;21.30;61.70;;;;;;6124288;23;19920;-61
2023/08/16 02:59:47;;;;;;;1.17;0.55;;;21.30;62.40;;;;;;6098723;23;20017;-62
2023/08/16 03:02:15;;;;;;;0.43;0.40;;;21.30;62.50;;;;;;6098875;23;20436;-62
2023/08/16 03:04:41;;;;;;;0.85;0.60;;;21.30;62.80;;;;;;6098550;23;20364;-61
2023/08/16 03:07:26;;;;;;;;;;;21.20;62.90;;;;;;6124783;23;20379;-61
2023/08/16 03:09:52;;;;;;;0.50;0.43;;;21.20;62.60;;;;;;6098335;23;19920;-61
2023/08/16 03:12:18;;;;;;;;;;;21.10;62.80;;;;;;6124374;23;20018;-61
2023/08/16 03:14:44;;;;;;;0.82;0.50;;;21.10;62.60;;;;;;6124305;23;19943;-61
2023/08/16 03:17:10;;;;;;;;;;;21.10;62.90;;;;;;6124577;23;20010;-61
2023/08/16 03:19:36;;;;;;;0.30;0.30;;;21.00;62.70;;;;;;6124067;23;20354;-62
2023/08/16 03:22:02;;;;;;;;;;;21.00;62.80;;;;;;6099057;23;20119;-62
2023/08/16 03:24:28;;;;;;;0.57;0.43;;;21.00;62.70;;;;;;6124011;23;19913;-62
2023/08/16 03:26:54;;;;;;;0.90;0.85;;;20.90;63.00;;;;;;6124107;23;20081;-62
2023/08/16 03:29:20;;;;;;;;;;;21.00;63.30;;;;;;6124847;23;20002;-61
2023/08/16 03:31:47;;;;;;;1.42;0.63;;;21.00;63.00;;;;;;6097962;23;19987;-61
2023/08/16 03:34:13;;;;;;;7.07;1.73;;;20.90;62.90;;;;;;6098501;23;20013;-61
2023/08/16 03:36:40;;;;;;;1.02;0.88;;;20.90;63.30;;;;;;6124087;23;20018;-61
2023/08/16 03:39:06;;;;;;;1.50;0.43;;;20.80;63.00;;;;;;6098428;23;20073;-61
2023/08/16 03:41:33;;;;;;;2.05;0.55;;;20.70;63.40;;;;;;6099494;23;20026;-61
2023/08/16 03:44:00;;;;;;;0.88;0.32;;;20.60;62.80;;;;;;6100264;23;20332;-62
2023/08/16 03:46:27;;;;;;;0.65;0.40;;;20.50;62.80;;;;;;6075477;23;20321;-61
2023/08/16 03:48:52;;;;;;;;;;;20.40;63.60;;;;;;6126635;23;20006;-61
2023/08/16 03:51:18;;;;;;;0.32;0.28;;;20.40;63.30;;;;;;6125378;23;19927;-61
2023/08/16 03:53:44;;;;;;;1.35;1.23;;;20.30;63.60;;;;;;6125905;23;20111;-61
2023/08/16 03:56:10;;;;;;;1.45;0.95;;;20.30;63.60;;;;;;6125456;23;20025;-61
2023/08/16 03:58:36;;;;;;;0.73;0.68;;;20.30;63.70;;;;;;6125806;23;20013;-61
2023/08/16 04:01:03;;;;;;;1.40;0.70;;;20.30;63.60;;;;;;6125223;23;20026;-61
2023/08/16 04:03:29;;;;;;;0.98;0.68;;;20.30;63.70;;;;;;6126037;23;20036;-61
2023/08/16 04:05:55;;;;;;;0.90;0.65;;;20.40;64.00;;;;;;6099428;23;20049;-61
2023/08/16 04:08:21;;;;;;;1.70;1.05;;;20.40;63.90;;;;;;6099671;23;20010;-61
2023/08/16 04:10:47;;;;;;;1.77;0.82;;;20.40;63.80;;;;;;6125356;23;20444;-61
2023/08/16 04:13:13;;;;;;;;;;;20.40;63.60;;;;;;6126285;23;20084;-61
2023/08/16 04:15:39;;;;;;;1.27;0.65;;;20.40;63.70;;;;;;6125146;23;19909;-61
2023/08/16 04:18:05;;;;;;;1.60;1.02;;;20.40;63.60;;;;;;6125725;23;20017;-61
2023/08/16 04:20:31;;;;;;;;;;;20.40;63.80;;;;;;6125233;23;20351;-61
2023/08/16 04:22:59;;;;;;;1.15;0.80;;;20.40;63.80;;;;;;6125797;23;19991;-61
2023/08/16 04:25:25;;;;;;;0.65;0.40;;;20.40;63.90;;;;;;6099017;23;20030;-61
2023/08/16 04:27:51;;;;;;;;;;;20.40;64.10;;;;;;6126717;23;20024;-61
2023/08/16 04:30:17;;;;;;;1.23;0.93;;;20.40;64.30;;;;;;6148107;23;20339;-61
2023/08/16 04:32:43;;;;;;;1.98;0.50;;;20.40;64.20;;;;;;6125911;23;20018;-61
2023/08/16 04:35:09;;;;;;;1.92;0.95;;;20.40;64.70;;;;;;6098848;23;20347;-61
2023/08/16 04:37:35;;;;;;;;;;;20.50;64.80;;;;;;6100493;23;20018;-61
2023/08/16 04:40:01;;;;;;;1.48;0.95;;;20.50;64.70;;;;;;6125758;23;19947;-61
2023/08/16 04:42:30;;;;;;;1.30;0.90;;;20.50;64.70;;;;;;6125442;23;20014;-62
2023/08/16 04:44:56;;;;;;;2.65;1.45;;;20.60;64.60;;;;;;6100188;23;20332;-61
2023/08/16 04:47:22;;;;;;;;;;;20.60;64.60;;;;;;6099572;23;20447;-61
2023/08/16 04:49:48;;;;;;;0.73;0.40;;;20.60;64.40;;;;;;6099420;23;19916;-61
2023/08/16 04:52:14;;;;;;;;;;;20.70;64.80;;;;;;6125465;23;20014;-61
2023/08/16 04:54:40;;;;;;;0.60;0.55;;;20.70;64.60;;;;;;6125301;23;19944;-63
2023/08/16 04:57:06;;;;;;;;;;;20.70;64.90;;;;;;6125886;23;20018;-61
2023/08/16 04:59:32;;;;;;;2.28;1.65;;;20.70;64.90;;;;;;6125206;23;20287;-61
2023/08/16 05:01:58;;;;;;;;;;;20.70;65.80;;;;;;6125682;23;20336;-61
2023/08/16 05:04:24;;;;;;;0.50;0.40;;;20.70;64.90;;;;;;6125136;23;19948;-61
2023/08/16 05:06:49;;;;;;;;;;;20.80;64.90;;;;;;6099613;23;20261;-61
2023/08/16 05:09:15;;;;;;;1.90;1.17;;;20.80;64.90;;;;;;6125191;23;20253;-61
2023/08/16 05:11:41;;;;;;;;;;;20.80;65.20;;;;;;6099508;23;20335;-61
2023/08/16 05:14:07;;;;;;;1.55;0.77;;;20.80;65.00;;;;;;6125312;23;19977;-61
2023/08/16 05:16:33;;;;;;;;;;;20.80;65.00;;;;;;6125365;23;20068;-61
2023/08/16 05:19:00;;;;;;;1.55;1.08;;;20.90;65.20;;;;;;6098984;23;19952;-61
2023/08/16 05:21:26;;;;;;;1.20;0.73;;;20.90;65.00;;;;;;6098534;23;20022;-60
2023/08/16 05:23:52;;;;;;;;;;;21.00;65.10;;;;;;6125940;23;20025;-61
2023/08/16 05:26:18;;;;;;;1.90;1.15;;;21.10;65.20;;;;;;6122982;23;20311;-61
2023/08/16 05:28:44;;;;;;;;;;;21.10;65.10;;;;;;6125738;23;20076;-61
2023/08/16 05:31:11;;;;;;;2.47;1.80;;;21.20;65.10;;;;;;6147546;23;19955;-61
2023/08/16 05:33:39;;;;;;;1.42;0.80;;;21.20;65.00;;;;;;6098973;23;20017;-61
2023/08/16 05:36:06;;;;;;;1.85;1.30;;;21.20;64.80;;;;;;6098597;23;20085;-61
2023/08/16 05:38:33;;;;;;;1.67;1.02;;;21.30;65.10;;;;;;6099034;23;20061;-61
2023/08/16 05:41:00;;;;;;;1.25;0.73;;;21.40;65.00;;;;;;6124372;23;20022;-61
2023/08/16 05:43:26;;;;;;;1.10;0.90;;;21.40;65.00;;;;;;6099044;23;20010;-61
2023/08/16 05:45:52;;;;;;;;;;;21.50;65.80;;;;;;6124879;23;20018;-61
2023/08/16 05:48:18;;;;;;;1.13;0.95;;;21.60;65.70;;;;;;6124657;23;19956;-61
2023/08/16 05:50:44;;;;;;;;;;;21.70;65.50;;;;;;6125387;23;20010;-61
2023/08/16 05:53:10;;;;;;;0.57;0.55;;;21.70;65.30;;;;;;6124785;23;19937;-61
2023/08/16 05:55:36;;;;;;;;;;;21.90;65.10;;;;;;6098715;23;20014;-61
2023/08/16 05:58:03;;;;;;;1.35;0.90;;;21.90;64.90;;;;;;6098808;23;19984;-61
2023/08/16 06:00:30;;;;;;;1.35;0.88;;;22.00;64.50;;;;;;6098247;23;20027;-61
2023/08/16 06:02:56;;;;;;;1.17;0.65;;;22.10;63.90;;;;;;6124652;23;20010;-61
2023/08/16 06:05:22;;;;;;;;;;;22.30;64.50;;;;;;6124685;23;20088;-61
2023/08/16 06:07:48;;;;;;;4.18;1.50;;;22.30;64.20;;;;;;6125288;23;19956;-61
2023/08/16 06:10:14;;;;;;;0.73;0.50;;;22.50;63.90;;;;;;6124040;23;20010;-61
2023/08/16 06:12:40;;;;;;;;;;;22.60;63.90;;;;;;6125852;23;20065;-61
2023/08/16 06:15:11;;;;;;;1.50;0.80;;;22.70;64.00;;;;;;6124835;23;19932;-61
2023/08/16 06:17:38;;;;;;;0.45;0.38;;;22.80;63.30;;;;;;6099421;23;20073;-61
2023/08/16 06:20:07;;;;;;;2.60;1.30;;;22.90;63.40;;;;;;6124432;23;20069;-61
2023/08/16 06:22:35;;;;;;;2.08;0.90;;;23.00;63.60;;;;;;6098971;23;20336;-61
2023/08/16 06:25:01;;;;;;;1.77;1.33;;;23.10;63.10;;;;;;6074922;23;20021;-61
2023/08/16 06:27:27;;;;;;;;;;;23.20;62.50;;;;;;6125321;23;20018;-61
2023/08/16 06:29:53;;;;;;;0.30;0.30;;;23.30;62.60;;;;;;6124335;23;19955;-61
2023/08/16 06:32:19;;;;;;;;;;;23.40;61.80;;;;;;6125186;23;20022;-61
2023/08/16 06:34:45;;;;;;;1.60;1.05;;;23.50;62.10;;;;;;6147419;23;20370;-61
2023/08/16 06:37:11;;;;;;;2.95;1.13;;;23.50;61.80;;;;;;6124190;23;20014;-62
2023/08/16 06:39:38;;;;;;;;;;;23.60;61.70;;;;;;6099155;23;20024;-63
2023/08/16 06:42:04;;;;;;;13.20;7.40;;;23.80;61.70;;;;;;6097903;23;19999;-61
2023/08/16 06:44:30;;;;;;;8.50;5.13;;;23.80;60.90;;;;;;6124024;23;20344;-61
2023/08/16 06:46:56;;;;;;;;;;;23.90;61.20;;;;;;6123559;23;20020;-61
2023/08/16 06:49:22;;;;;;;9.45;4.18;;;24.00;61.00;;;;;;6123928;23;19941;-61
2023/08/16 06:51:48;;;;;;;;;;;24.20;60.10;;;;;;6124852;23;20310;-61
2023/08/16 06:54:14;;;;;;;6.60;4.03;;;24.30;60.30;;;;;;6124165;23;19987;-64
2023/08/16 06:56:40;;;;;;;;;;;24.40;59.60;;;;;;6124526;23;20098;-63
2023/08/16 06:59:06;;;;;;;15.18;7.95;;;24.50;59.60;;;;;;6147654;23;19936;-61
2023/08/16 07:01:32;;;;;;;16.30;7.75;;;24.60;58.20;;;;;;6097849;23;20072;-62
2023/08/16 07:03:58;;;;;;;;;;;24.90;58.70;;;;;;6124874;23;20344;-62
2023/08/16 07:06:26;;;;;;;21.02;5.60;;;25.10;58.60;;;;;;6123229;23;19995;-61
2023/08/16 07:08:53;;;;;;;9.70;1.80;;;25.40;57.40;;;;;;6098416;23;20456;-62
2023/08/16 07:11:19;;;;;;;1.42;1.30;;;25.60;56.80;;;;;;6123038;23;20037;-63
2023/08/16 07:13:45;;;;;;;1.70;1.17;;;25.90;56.20;;;;;;6124197;23;20006;-61
2023/08/16 07:16:12;;;;;;;2.13;1.05;;;26.20;55.30;;;;;;6125140;23;20022;-61
2023/08/16 07:18:38;;;;;;;2.75;1.30;;;26.40;55.10;;;;;;6100349;23;20526;-62
2023/08/16 07:21:04;;;;;;;8.32;1.10;;;26.70;53.10;;;;;;6125422;23;20022;-62
2023/08/16 07:23:30;;;;;;;0.45;0.40;;;27.00;52.30;;;;;;6126143;23;20452;-62
2023/08/16 07:25:56;;;;;;;1.35;0.73;;;27.30;51.90;;;;;;6099565;23;20026;-64
2023/08/16 07:28:41;;;;;;;0.55;0.55;;;27.50;51.50;;;;;;6100299;23;20060;-64
2023/08/16 07:31:08;;;;;;;5.47;3.75;;;27.90;51.90;;;;;;6125478;23;20014;-64
2023/08/16 07:33:35;;;;;;;1.85;1.45;;;28.20;51.50;;;;;;6126044;23;20014;-64
2023/08/16 07:36:01;;;;;;;0.73;0.50;;;28.60;49.10;;;;;;6125423;23;20346;-64
2023/08/16 07:38:29;;;;;;;1.58;1.00;;;28.80;48.20;;;;;;6125993;23;20010;-64
2023/08/16 07:40:55;;;;;;;3.53;2.00;;;29.10;48.60;;;;;;6100028;23;20499;-65
2023/08/16 07:43:21;;;;;;;8.07;6.32;;;29.50;47.80;;;;;;6125904;23;20013;-65
2023/08/16 07:46:09;;;;;;;5.75;3.38;;;29.90;46.80;;;;;;6125394;23;20014;-64
2023/08/16 07:48:35;;;;;;;4.75;3.42;;;30.20;46.10;;;;;;6099894;23;20067;-65
2023/08/16 07:51:01;;;;;;;2.25;1.10;;;30.60;44.80;;;;;;6125448;23;20026;-65
2023/08/16 07:53:27;;;;;;;2.42;1.20;;;30.90;43.10;;;;;;6125751;23;20010;-65
2023/08/16 07:55:53;;;;;;;1.70;1.05;;;31.30;42.90;;;;;;6099366;23;20058;-64
2023/08/16 07:58:20;;;;;;;1.27;1.08;;;31.80;42.30;;;;;;6125743;23;20024;-65
2023/08/16 08:00:46;;;;;;;0.93;0.88;;;32.20;41.60;;;;;;6125027;23;20010;-65
2023/08/16 08:03:12;;;;;;;1.13;0.90;;;32.70;39.20;;;;;;6125875;23;20057;-66
2023/08/16 08:05:38;;;;;;;1.38;0.82;;;33.00;39.20;;;;;;6125044;23;20010;-65
2023/08/16 08:08:06;;;;;;;6.60;4.82;;;33.50;38.30;;;;;;6125716;23;20345;-67
2023/08/16 08:10:32;;;;;;;5.78;3.28;;;33.80;36.70;;;;;;6124853;23;20072;-65
2023/08/16 08:12:58;;;;;;;2.55;2.08;;;34.30;35.20;;;;;;6125309;23;20010;-66
2023/08/16 08:15:25;;;;;;;1.48;1.08;;;34.60;35.40;;;;;;6124867;23;20017;-67
2023/08/16 08:17:51;;;;;;;4.38;2.25;;;35.00;34.50;;;;;;6099905;23;20014;-67
2023/08/16 08:20:17;;;;;;;8.88;5.18;;;35.50;34.00;;;;;;6124683;23;20026;-67
2023/08/16 08:22:44;;;;;;;2.28;1.45;;;35.80;33.00;;;;;;6099984;23;20450;-68
2023/08/16 08:25:10;;;;;;;4.07;1.98;;;36.30;32.20;;;;;;6099063;23;20017;-67
2023/08/16 08:27:36;;;;;;;2.88;1.85;;;36.70;30.90;;;;;;6098973;23;20332;-67
2023/08/16 08:30:03;;;;;;;1.95;1.27;;;37.20;30.40;;;;;;6125541;23;20006;-67
2023/08/16 08:32:29;;;;;;;1.08;0.82;;;37.30;28.50;;;;;;6125805;23;20026;-67
2023/08/16 08:34:55;;;;;;;1.77;1.17;;;37.50;28.80;;;;;;6125438;23;20018;-68
2023/08/16 08:37:21;;;;;;;5.05;2.28;;;38.00;28.10;;;;;;6099394;23;20340;-68
2023/08/16 08:39:47;;;;;;;0.80;0.65;;;38.40;27.80;;;;;;6125568;23;20006;-67
2023/08/16 08:42:14;;;;;;;1.05;0.80;;;38.50;27.00;;;;;;6124624;23;20022;-67
2023/08/16 08:44:43;;;;;;;1.95;1.30;;;38.60;26.20;;;;;;6099448;23;20010;-67
2023/08/16 08:47:10;;;;;;;3.28;2.15;;;38.80;25.80;;;;;;6099265;23;20053;-68
2023/08/16 08:49:37;;;;;;;1.20;0.95;;;39.20;25.70;;;;;;6099739;23;20020;-68
2023/08/16 08:52:05;;;;;;;1.38;1.20;;;39.70;25.10;;;;;;6125173;23;20368;-66
2023/08/16 08:54:32;;;;;;;1.95;1.33;;;40.20;24.40;;;;;;6075426;23;20006;-68
2023/08/16 08:57:18;;;;;;;1.85;1.35;;;40.60;23.80;;;;;;6125120;23;20022;-68
2023/08/16 08:59:49;;;;;;;1.92;1.42;;;41.00;23.90;;;;;;6099423;23;20065;-68
2023/08/16 09:02:17;;;;;;;2.50;1.40;;;41.50;22.40;;;;;;6124816;23;20018;-66
2023/08/16 09:04:44;;;;;;;1.98;1.15;;;41.90;22.30;;;;;;6125015;23;20072;-67
2023/08/16 09:07:11;;;;;;;3.95;2.90;;;42.30;22.00;;;;;;6098949;23;20018;-67
2023/08/16 09:09:38;;;;;;;1.92;1.48;;;42.80;21.50;;;;;;6123934;23;20077;-67
2023/08/16 09:12:04;;;;;;;3.33;1.95;;;43.20;21.30;;;;;;6124542;23;20014;-67
2023/08/16 09:14:31;;;;;;;1.73;1.60;;;43.40;20.60;;;;;;6124927;23;20076;-66
2023/08/16 09:16:57;;;;;;;1.60;1.17;;;43.70;19.70;;;;;;6098798;23;20209;-67
2023/08/16 09:19:23;;;;;;;1.90;1.33;;;44.10;20.30;;;;;;6098757;23;20057;-67
2023/08/16 09:21:51;;;;;;;2.05;1.85;;;44.50;19.20;;;;;;6124833;23;20032;-67
2023/08/16 09:24:26;;;;;;;1.73;1.35;;;44.80;18.50;;;;;;6124748;23;20077;-67
2023/08/16 09:26:53;;;;;;;1.73;1.15;;;45.10;19.20;;;;;;6099645;23;20429;-66
2023/08/16 09:29:19;;;;;;;2.45;1.70;;;45.60;18.50;;;;;;6124840;23;20013;-67
2023/08/16 09:31:46;;;;;;;1.10;1.00;;;46.10;19.00;;;;;;6098798;23;20022;-67
2023/08/16 09:34:16;;;;;;;1.73;1.50;;;46.60;18.00;;;;;;6099183;23;20014;-66
2023/08/16 09:36:45;;;;;;;1.20;1.10;;;47.00;18.30;;;;;;6099153;23;20023;-66
2023/08/16 09:39:11;;;;;;;1.25;1.15;;;47.10;17.50;;;;;;6098777;23;20013;-67
2023/08/16 09:41:56;;;;;;;2.03;1.75;;;47.40;17.10;;;;;;6124465;23;20022;-67
2023/08/16 09:44:28;;;;;;;1.63;1.42;;;47.80;16.70;;;;;;6124630;23;20017;-66
2023/08/16 09:46:56;;;;;;;2.00;1.80;;;48.30;16.90;;;;;;6098856;23;20017;-66
2023/08/16 09:49:23;;;;;;;2.38;1.75;;;48.60;16.60;;;;;;6125091;23;20013;-67
2023/08/16 09:51:50;;;;;;;2.05;1.85;;;49.10;16.20;;;;;;6124568;23;20026;-67
2023/08/16 09:54:17;;;;;;;1.67;1.50;;;49.40;15.80;;;;;;6124649;23;20462;-67
2023/08/16 09:56:44;;;;;;;2.70;2.25;;;49.70;15.70;;;;;;6098305;23;20029;-67
2023/08/16 09:59:11;;;;;;;2.08;1.70;;;50.00;15.90;;;;;;6098360;23;20018;-67
2023/08/16 10:01:38;;;;;;;2.42;1.98;;;50.50;15.30;;;;;;6124398;23;20428;-67
2023/08/16 10:04:07;;;;;;;2.38;2.00;;;50.70;14.20;;;;;;6074772;23;20010;-68
2023/08/16 10:06:34;;;;;;;2.10;1.80;;;49.90;14.30;;;;;;6098407;23;20367;-67
2023/08/16 10:09:04;;;;;;;2.40;2.20;;;50.30;14.20;;;;;;6124709;23;20033;-68
2023/08/16 10:14:19;;;;;;;2.13;1.85;;;51.00;14.40;;;;;;6124700;23;20021;-67
2023/08/16 10:16:51;;;;;;;3.72;2.55;;;51.60;14.00;;;;;;6098470;23;20087;-67
2023/08/16 10:19:23;;;;;;;2.38;2.05;;;52.00;13.80;;;;;;6098331;23;20006;-67
2023/08/16 10:21:52;;;;;;;2.30;2.00;;;52.40;13.80;;;;;;6098415;23;20494;-67
2023/08/16 10:24:20;;;;;;;3.08;2.75;;;52.70;13.30;;;;;;6124348;23;20042;-67
2023/08/16 10:26:48;;;;;;;2.78;2.33;;;52.90;13.00;;;;;;6097961;23;20060;-67
2023/08/16 10:29:19;;;;;;;3.30;2.85;;;53.10;12.60;;;;;;6098590;23;20010;-67
2023/08/16 10:31:48;;;;;;;2.90;2.58;;;53.10;12.70;;;;;;6124461;23;20017;-67
2023/08/16 10:34:15;;;;;;;3.17;2.88;;;53.30;11.90;;;;;;6124194;23;20037;-66
2023/08/16 10:36:42;;;;;;;2.90;2.60;;;53.50;11.80;;;;;;6098294;23;20029;-66
2023/08/16 10:39:08;;;;;;;4.10;3.70;;;53.80;10.90;;;;;;6098516;23;20014;-66
2023/08/16 10:42:03;;;;;;;3.22;2.92;;;53.90;11.70;;;;;;6119406;23;20060;-66
2023/08/16 10:44:29;;;;;;;3.10;2.80;;;54.40;11.70;;;;;;6098251;23;20022;-66
2023/08/16 10:46:55;;;;;;;2.83;2.55;;;54.40;11.30;;;;;;6124485;23;20013;-66
2023/08/16 10:49:21;;;;;;;3.70;2.50;;;52.40;11.90;;;;;;6124539;23;20009;-67
2023/08/16 10:51:52;;;;;;;2.60;2.22;;;51.30;13.20;;;;;;6100323;23;20462;-67
2023/08/16 10:54:19;;;;;;;2.30;2.10;;;50.70;13.00;;;;;;6126380;23;20218;-66
2023/08/16 10:56:50;;;;;;;3.28;2.75;;;51.70;12.20;;;;;;6100329;23;20352;-67
2023/08/16 10:59:20;;;;;;;2.30;1.83;;;52.50;12.40;;;;;;6100879;23;20006;-67
2023/08/16 11:02:28;;;;;;;3.92;3.33;;;53.50;12.30;;;;;;6126250;23;20025;-67
2023/08/16 11:04:55;;;;;;;4.13;3.58;;;54.10;11.90;;;;;;6126259;23;20014;-67
2023/08/16 11:07:22;;;;;;;7.18;4.60;;;54.20;11.90;;;;;;6076167;23;20026;-66
2023/08/16 11:09:48;;;;;;;4.43;4.03;;;54.60;11.80;;;;;;6100583;23;20010;-66
2023/08/16 11:12:17;;;;;;;6.82;6.22;;;54.80;11.50;;;;;;6125795;23;20076;-67
2023/08/16 11:15:02;;;;;;;5.00;4.05;;;55.00;11.90;;;;;;6125018;23;20013;-67
2023/08/16 11:17:29;;;;;;;3.95;3.60;;;55.30;11.40;;;;;;6125288;23;20032;-67
2023/08/16 11:19:55;;;;;;;3.95;3.55;;;55.50;11.00;;;;;;6093125;23;20017;-67
2023/08/16 11:22:24;;;;;;;5.75;4.57;;;55.50;10.20;;;;;;6096356;23;20011;-67
2023/08/16 11:24:50;;;;;;;3.80;3.50;;;55.70;9.90;;;;;;6096717;23;20010;-66
2023/08/16 11:27:36;;;;;;;3.25;2.95;;;56.20;10.10;;;;;;6096374;23;20014;-67
2023/08/16 11:30:03;;;;;;;4.65;4.25;;;54.60;10.30;;;;;;6071146;23;20333;-66
2023/08/16 11:32:48;;;;;;;3.40;3.10;;;54.70;9.60;;;;;;6096976;23;20044;-66
2023/08/16 11:35:14;;;;;;;3.70;3.30;;;55.40;10.50;;;;;;6096145;23;20007;-66
2023/08/16 11:37:41;;;;;;;4.43;4.03;;;55.90;10.50;;;;;;6071487;23;20026;-67
2023/08/16 11:40:11;;;;;;;4.03;3.67;;;56.30;10.20;;;;;;6096157;23;20041;-66
2023/08/16 11:42:37;;;;;;;5.40;4.90;;;56.70;10.20;;;;;;6071924;23;20025;-67
2023/08/16 11:45:24;;;;;;;4.43;4.03;;;56.80;10.20;;;;;;6070385;23;20329;-67
2023/08/16 11:48:09;;;;;;;4.38;3.97;;;57.20;10.10;;;;;;6097115;23;20033;-67
2023/08/16 11:50:35;;;;;;;4.75;4.35;;;56.80;9.60;;;;;;6070514;23;20507;-66
2023/08/16 11:53:03;;;;;;;4.78;4.38;;;57.10;10.20;;;;;;6071075;23;20010;-67
2023/08/16 11:55:30;;;;;;;4.97;4.47;;;57.40;9.80;;;;;;6070747;23;20014;-66
2023/08/16 11:58:15;;;;;;;4.95;4.55;;;57.50;9.40;;;;;;6071220;23;20041;-67
2023/08/16 12:00:42;;;;;;;5.30;4.82;;;57.60;9.60;;;;;;6096090;23;20058;-66
2023/08/16 12:05:55;;;;;;;5.35;4.85;;;58.20;9.30;;;;;;6074648;23;20062;-67
2023/08/16 12:08:21;;;;;;;5.35;4.95;;;58.60;9.40;;;;;;6096323;23;20015;-66
2023/08/16 12:11:06;;;;;;;5.40;4.93;;;58.50;8.90;;;;;;6070561;23;20026;-67
2023/08/16 12:13:35;;;;;;;6.05;5.55;;;58.70;9.00;;;;;;6096511;23;20348;-67
2023/08/16 12:16:01;;;;;;;6.13;5.65;;;58.50;9.00;;;;;;6095852;23;20046;-67
2023/08/16 12:18:27;;;;;;;5.40;5.00;;;59.00;9.60;;;;;;6096040;23;20018;-66
2023/08/16 12:20:53;;;;;;;7.05;6.43;;;59.20;9.50;;;;;;6113927;23;20076;-67
2023/08/16 12:23:38;;;;;;;5.93;5.43;;;59.50;9.10;;;;;;6125819;23;20010;-67
2023/08/16 12:26:05;;;;;;;6.15;5.65;;;59.30;8.90;;;;;;6099047;23;20045;-68
2023/08/16 12:28:31;;;;;;;6.93;6.43;;;59.60;9.00;;;;;;6099783;23;20009;-67
2023/08/16 12:30:57;;;;;;;6.85;6.35;;;59.70;9.40;;;;;;6124773;23;20021;-68
2023/08/16 12:33:23;;;;;;;6.97;6.47;;;59.80;9.00;;;;;;6099731;23;20010;-67
2023/08/16 12:35:49;;;;;;;7.57;7.07;;;59.80;8.60;;;;;;6124811;23;20069;-67
2023/08/16 12:38:15;;;;;;;7.72;7.22;;;60.10;8.80;;;;;;6125427;23;20057;-66
2023/08/16 12:40:41;;;;;;;8.13;7.55;;;60.20;8.70;;;;;;6125151;23;20096;-67
2023/08/16 12:43:07;;;;;;;7.80;7.20;;;60.10;8.80;;;;;;6099416;23;20340;-68
2023/08/16 12:45:33;;;;;;;7.93;7.43;;;59.60;8.70;;;;;;6098669;23;20014;-67
2023/08/16 12:48:00;;;;;;;6.75;6.25;;;59.20;9.30;;;;;;6125536;23;20392;-67
2023/08/16 12:50:26;;;;;;;7.45;6.95;;;58.80;9.10;;;;;;6124878;23;20034;-67
2023/08/16 12:52:52;;;;;;;8.43;7.82;;;59.60;9.10;;;;;;6099756;23;20454;-67
2023/08/16 12:55:18;;;;;;;8.30;7.70;;;60.10;9.90;;;;;;6124719;23;20020;-67
2023/08/16 12:57:44;;;;;;;7.82;7.32;;;60.30;8.80;;;;;;6125011;23;20022;-67
2023/08/16 13:00:11;;;;;;;9.80;9.10;;;60.50;8.90;;;;;;6124945;23;20038;-67
2023/08/16 13:03:01;;;;;;;8.35;7.82;;;60.70;8.30;;;;;;6099592;23;20018;-67
2023/08/16 13:05:29;;;;;;;9.18;8.57;;;60.90;8.70;;;;;;6124792;23;20389;-67
2023/08/16 13:07:56;;;;;;;16.73;8.80;;;61.30;8.70;;;;;;6099627;23;20101;-66
2023/08/16 13:10:22;;;;;;;9.02;8.43;;;60.50;8.60;;;;;;6124437;23;20029;-67